sensor_id;sensor_type;location;lat;lon;timestamp;P1;durP1;ratioP1;P2;durP2;ratioP2
40609;SDS011;26316;55.976;37.140;2023-06-04T00:02:04;2.88;;;0.93;;
40609;SDS011;26316;55.976;37.140;2023-06-04T00:04:29;1.95;;;1.40;;
40609;SDS011;26316;55.976;37.140;2023-06-04T00:06:55;1.88;;;1.48;;
40609;SDS011;26316;55.976;37.140;2023-06-04T00:09:21;2.05;;;1.27;;
40609;SDS011;26316;55.976;37.140;2023-06-04T00:11:47;1.88;;;1.30;;
40609;SDS011;26316;55.976;37.140;2023-06-04T00:14:13;3.65;;;1.13;;
40609;SDS011;26316;55.976;37.140;2023-06-04T00:16:40;1.17;;;1.08;;
40609;SDS011;26316;55.976;37.140;2023-06-04T00:19:06;2.00;;;1.35;;
40609;SDS011;26316;55.976;37.140;2023-06-04T00:21:32;1.63;;;1.42;;
40609;SDS011;26316;55.976;37.140;2023-06-04T00:24:00;1.90;;;1.15;;
40609;SDS011;26316;55.976;37.140;2023-06-04T00:26:26;2.42;;;1.40;;
40609;SDS011;26316;55.976;37.140;2023-06-04T00:28:53;2.58;;;1.35;;
40609;SDS011;26316;55.976;37.140;2023-06-04T00:31:22;3.60;;;1.30;;
40609;SDS011;26316;55.976;37.140;2023-06-04T00:33:48;3.72;;;1.60;;
40609;SDS011;26316;55.976;37.140;2023-06-04T00:36:14;1.45;;;1.17;;
40609;SDS011;26316;55.976;37.140;2023-06-04T00:38:40;1.13;;;1.02;;
40609;SDS011;26316;55.976;37.140;2023-06-04T00:41:06;1.35;;;1.20;;
40609;SDS011;26316;55.976;37.140;2023-06-04T00:43:32;1.23;;;1.00;;
40609;SDS011;26316;55.976;37.140;2023-06-04T00:45:58;2.35;;;0.85;;
40609;SDS011;26316;55.976;37.140;2023-06-04T00:48:24;2.35;;;1.20;;
40609;SDS011;26316;55.976;37.140;2023-06-04T00:50:53;1.65;;;1.10;;
40609;SDS011;26316;55.976;37.140;2023-06-04T00:53:20;2.25;;;1.80;;
40609;SDS011;26316;55.976;37.140;2023-06-04T00:55:46;3.03;;;0.98;;
40609;SDS011;26316;55.976;37.140;2023-06-04T00:58:12;1.65;;;1.30;;
40609;SDS011;26316;55.976;37.140;2023-06-04T01:00:41;1.08;;;1.05;;
40609;SDS011;26316;55.976;37.140;2023-06-04T01:03:10;1.20;;;1.10;;
40609;SDS011;26316;55.976;37.140;2023-06-04T01:05:48;1.67;;;1.08;;
40609;SDS011;26316;55.976;37.140;2023-06-04T01:08:18;1.27;;;0.90;;
40609;SDS011;26316;55.976;37.140;2023-06-04T01:10:53;1.95;;;1.20;;
40609;SDS011;26316;55.976;37.140;2023-06-04T01:13:20;4.00;;;1.05;;
40609;SDS011;26316;55.976;37.140;2023-06-04T01:15:46;1.88;;;1.08;;
40609;SDS011;26316;55.976;37.140;2023-06-04T01:18:18;4.72;;;1.38;;
40609;SDS011;26316;55.976;37.140;2023-06-04T01:20:56;1.50;;;1.00;;
40609;SDS011;26316;55.976;37.140;2023-06-04T01:26:03;4.38;;;1.10;;
40609;SDS011;26316;55.976;37.140;2023-06-04T01:28:30;4.10;;;1.08;;
40609;SDS011;26316;55.976;37.140;2023-06-04T01:30:58;2.63;;;1.10;;
40609;SDS011;26316;55.976;37.140;2023-06-04T01:33:26;1.35;;;1.05;;
40609;SDS011;26316;55.976;37.140;2023-06-04T01:35:52;2.15;;;1.23;;
40609;SDS011;26316;55.976;37.140;2023-06-04T01:38:18;1.30;;;0.88;;
40609;SDS011;26316;55.976;37.140;2023-06-04T01:40:45;0.98;;;0.90;;
40609;SDS011;26316;55.976;37.140;2023-06-04T01:43:10;3.38;;;1.10;;
40609;SDS011;26316;55.976;37.140;2023-06-04T01:45:36;1.00;;;0.80;;
40609;SDS011;26316;55.976;37.140;2023-06-04T01:48:03;1.23;;;1.00;;
40609;SDS011;26316;55.976;37.140;2023-06-04T01:50:29;1.25;;;1.15;;
40609;SDS011;26316;55.976;37.140;2023-06-04T01:52:56;2.05;;;0.93;;
40609;SDS011;26316;55.976;37.140;2023-06-04T01:55:22;1.83;;;1.25;;
40609;SDS011;26316;55.976;37.140;2023-06-04T01:57:50;1.55;;;1.00;;
40609;SDS011;26316;55.976;37.140;2023-06-04T02:00:16;1.70;;;1.20;;
40609;SDS011;26316;55.976;37.140;2023-06-04T02:02:44;1.35;;;1.20;;
40609;SDS011;26316;55.976;37.140;2023-06-04T02:05:11;1.10;;;1.00;;
40609;SDS011;26316;55.976;37.140;2023-06-04T02:07:38;1.02;;;1.00;;
40609;SDS011;26316;55.976;37.140;2023-06-04T02:10:06;5.35;;;1.30;;
40609;SDS011;26316;55.976;37.140;2023-06-04T02:12:32;2.15;;;1.10;;
40609;SDS011;26316;55.976;37.140;2023-06-04T02:14:58;3.05;;;1.25;;
40609;SDS011;26316;55.976;37.140;2023-06-04T02:17:24;3.85;;;0.93;;
40609;SDS011;26316;55.976;37.140;2023-06-04T02:19:51;1.17;;;1.08;;
40609;SDS011;26316;55.976;37.140;2023-06-04T02:22:17;1.80;;;1.00;;
40609;SDS011;26316;55.976;37.140;2023-06-04T02:24:43;1.48;;;0.88;;
40609;SDS011;26316;55.976;37.140;2023-06-04T02:27:13;3.63;;;0.90;;
40609;SDS011;26316;55.976;37.140;2023-06-04T02:29:40;3.33;;;1.00;;
40609;SDS011;26316;55.976;37.140;2023-06-04T02:32:06;2.10;;;1.08;;
40609;SDS011;26316;55.976;37.140;2023-06-04T02:34:32;1.92;;;0.90;;
40609;SDS011;26316;55.976;37.140;2023-06-04T02:37:00;1.65;;;1.00;;
40609;SDS011;26316;55.976;37.140;2023-06-04T02:39:26;1.77;;;1.10;;
40609;SDS011;26316;55.976;37.140;2023-06-04T02:41:52;1.67;;;0.98;;
40609;SDS011;26316;55.976;37.140;2023-06-04T02:44:17;2.15;;;1.00;;
40609;SDS011;26316;55.976;37.140;2023-06-04T02:46:43;2.50;;;0.80;;
40609;SDS011;26316;55.976;37.140;2023-06-04T02:49:10;1.10;;;1.00;;
40609;SDS011;26316;55.976;37.140;2023-06-04T02:51:43;4.07;;;1.00;;
40609;SDS011;26316;55.976;37.140;2023-06-04T02:54:09;4.10;;;1.05;;
40609;SDS011;26316;55.976;37.140;2023-06-04T02:56:36;0.75;;;0.70;;
40609;SDS011;26316;55.976;37.140;2023-06-04T02:59:02;0.98;;;0.70;;
40609;SDS011;26316;55.976;37.140;2023-06-04T03:01:29;3.15;;;1.00;;
40609;SDS011;26316;55.976;37.140;2023-06-04T03:03:55;0.88;;;0.82;;
40609;SDS011;26316;55.976;37.140;2023-06-04T03:06:23;5.15;;;1.00;;
40609;SDS011;26316;55.976;37.140;2023-06-04T03:08:49;5.13;;;0.80;;
40609;SDS011;26316;55.976;37.140;2023-06-04T03:11:16;6.55;;;0.95;;
40609;SDS011;26316;55.976;37.140;2023-06-04T03:13:42;5.65;;;0.98;;
40609;SDS011;26316;55.976;37.140;2023-06-04T03:16:08;3.33;;;1.00;;
40609;SDS011;26316;55.976;37.140;2023-06-04T03:18:36;3.47;;;0.80;;
40609;SDS011;26316;55.976;37.140;2023-06-04T03:21:06;2.60;;;0.90;;
40609;SDS011;26316;55.976;37.140;2023-06-04T03:23:32;3.65;;;0.90;;
40609;SDS011;26316;55.976;37.140;2023-06-04T03:26:00;1.08;;;0.65;;
40609;SDS011;26316;55.976;37.140;2023-06-04T03:28:27;1.52;;;0.80;;
40609;SDS011;26316;55.976;37.140;2023-06-04T03:30:53;1.95;;;0.85;;
40609;SDS011;26316;55.976;37.140;2023-06-04T03:33:20;3.63;;;0.95;;
40609;SDS011;26316;55.976;37.140;2023-06-04T03:35:46;0.95;;;0.90;;
40609;SDS011;26316;55.976;37.140;2023-06-04T03:38:13;0.80;;;0.80;;
40609;SDS011;26316;55.976;37.140;2023-06-04T03:40:41;1.70;;;0.80;;
40609;SDS011;26316;55.976;37.140;2023-06-04T03:43:09;0.90;;;0.70;;
40609;SDS011;26316;55.976;37.140;2023-06-04T03:45:35;1.25;;;0.60;;
40609;SDS011;26316;55.976;37.140;2023-06-04T03:48:02;0.82;;;0.82;;
40609;SDS011;26316;55.976;37.140;2023-06-04T03:50:29;1.85;;;0.85;;
40609;SDS011;26316;55.976;37.140;2023-06-04T03:52:56;0.85;;;0.63;;
40609;SDS011;26316;55.976;37.140;2023-06-04T03:55:22;2.95;;;1.27;;
40609;SDS011;26316;55.976;37.140;2023-06-04T03:57:50;4.10;;;1.25;;
40609;SDS011;26316;55.976;37.140;2023-06-04T04:00:16;1.23;;;0.60;;
40609;SDS011;26316;55.976;37.140;2023-06-04T04:02:47;2.08;;;0.50;;
40609;SDS011;26316;55.976;37.140;2023-06-04T04:05:21;1.08;;;0.75;;
40609;SDS011;26316;55.976;37.140;2023-06-04T04:07:48;5.13;;;1.52;;
40609;SDS011;26316;55.976;37.140;2023-06-04T04:10:18;1.30;;;0.80;;
40609;SDS011;26316;55.976;37.140;2023-06-04T04:12:45;0.63;;;0.63;;
40609;SDS011;26316;55.976;37.140;2023-06-04T04:15:12;0.50;;;0.50;;
40609;SDS011;26316;55.976;37.140;2023-06-04T04:17:38;1.80;;;0.70;;
40609;SDS011;26316;55.976;37.140;2023-06-04T04:20:04;1.67;;;0.60;;
40609;SDS011;26316;55.976;37.140;2023-06-04T04:22:32;1.95;;;0.60;;
40609;SDS011;26316;55.976;37.140;2023-06-04T04:25:00;0.82;;;0.50;;
40609;SDS011;26316;55.976;37.140;2023-06-04T04:27:28;0.85;;;0.60;;
40609;SDS011;26316;55.976;37.140;2023-06-04T04:29:56;1.10;;;0.70;;
40609;SDS011;26316;55.976;37.140;2023-06-04T04:32:31;0.38;;;0.38;;
40609;SDS011;26316;55.976;37.140;2023-06-04T04:34:57;0.90;;;0.90;;
40609;SDS011;26316;55.976;37.140;2023-06-04T04:37:31;2.55;;;1.30;;
40609;SDS011;26316;55.976;37.140;2023-06-04T04:39:57;0.95;;;0.60;;
40609;SDS011;26316;55.976;37.140;2023-06-04T04:42:25;2.00;;;0.65;;
40609;SDS011;26316;55.976;37.140;2023-06-04T04:44:51;1.10;;;0.60;;
40609;SDS011;26316;55.976;37.140;2023-06-04T04:47:19;1.52;;;0.70;;
40609;SDS011;26316;55.976;37.140;2023-06-04T04:49:45;0.80;;;0.80;;
40609;SDS011;26316;55.976;37.140;2023-06-04T04:52:11;0.88;;;0.68;;
40609;SDS011;26316;55.976;37.140;2023-06-04T04:54:39;0.85;;;0.70;;
40609;SDS011;26316;55.976;37.140;2023-06-04T04:57:05;1.15;;;0.60;;
40609;SDS011;26316;55.976;37.140;2023-06-04T04:59:34;0.73;;;0.70;;
40609;SDS011;26316;55.976;37.140;2023-06-04T05:02:00;1.77;;;0.65;;
40609;SDS011;26316;55.976;37.140;2023-06-04T05:04:26;1.60;;;0.70;;
40609;SDS011;26316;55.976;37.140;2023-06-04T05:06:52;0.88;;;0.63;;
40609;SDS011;26316;55.976;37.140;2023-06-04T05:09:17;0.77;;;0.52;;
40609;SDS011;26316;55.976;37.140;2023-06-04T05:11:44;0.70;;;0.63;;
40609;SDS011;26316;55.976;37.140;2023-06-04T05:14:10;0.40;;;0.40;;
40609;SDS011;26316;55.976;37.140;2023-06-04T05:16:37;6.43;;;1.98;;
40609;SDS011;26316;55.976;37.140;2023-06-04T05:19:04;0.65;;;0.63;;
40609;SDS011;26316;55.976;37.140;2023-06-04T05:21:33;0.50;;;0.50;;
40609;SDS011;26316;55.976;37.140;2023-06-04T05:24:04;0.95;;;0.50;;
40609;SDS011;26316;55.976;37.140;2023-06-04T05:29:04;1.65;;;0.70;;
40609;SDS011;26316;55.976;37.140;2023-06-04T05:31:33;0.60;;;0.60;;
40609;SDS011;26316;55.976;37.140;2023-06-04T05:34:02;0.60;;;0.60;;
40609;SDS011;26316;55.976;37.140;2023-06-04T05:36:31;2.05;;;0.68;;
40609;SDS011;26316;55.976;37.140;2023-06-04T05:39:00;0.60;;;0.60;;
40609;SDS011;26316;55.976;37.140;2023-06-04T05:41:33;1.23;;;0.63;;
40609;SDS011;26316;55.976;37.140;2023-06-04T05:44:01;2.25;;;0.75;;
40609;SDS011;26316;55.976;37.140;2023-06-04T05:46:28;0.57;;;0.50;;
40609;SDS011;26316;55.976;37.140;2023-06-04T05:48:54;0.70;;;0.60;;
40609;SDS011;26316;55.976;37.140;2023-06-04T05:51:21;1.17;;;0.55;;
40609;SDS011;26316;55.976;37.140;2023-06-04T05:53:47;0.80;;;0.60;;
40609;SDS011;26316;55.976;37.140;2023-06-04T05:56:13;2.92;;;0.90;;
40609;SDS011;26316;55.976;37.140;2023-06-04T05:58:40;0.40;;;0.40;;
40609;SDS011;26316;55.976;37.140;2023-06-04T06:01:07;0.55;;;0.55;;
40609;SDS011;26316;55.976;37.140;2023-06-04T06:03:33;0.77;;;0.77;;
40609;SDS011;26316;55.976;37.140;2023-06-04T06:05:59;0.80;;;0.80;;
40609;SDS011;26316;55.976;37.140;2023-06-04T06:08:26;0.80;;;0.80;;
40609;SDS011;26316;55.976;37.140;2023-06-04T06:10:53;0.68;;;0.68;;
40609;SDS011;26316;55.976;37.140;2023-06-04T06:13:19;1.02;;;0.73;;
40609;SDS011;26316;55.976;37.140;2023-06-04T06:15:46;0.70;;;0.60;;
40609;SDS011;26316;55.976;37.140;2023-06-04T06:18:14;3.15;;;0.70;;
40609;SDS011;26316;55.976;37.140;2023-06-04T06:20:40;1.42;;;0.88;;
40609;SDS011;26316;55.976;37.140;2023-06-04T06:23:07;6.20;;;1.00;;
40609;SDS011;26316;55.976;37.140;2023-06-04T06:25:35;0.68;;;0.68;;
40609;SDS011;26316;55.976;37.140;2023-06-04T06:28:09;2.08;;;0.60;;
40609;SDS011;26316;55.976;37.140;2023-06-04T06:30:36;1.05;;;0.80;;
40609;SDS011;26316;55.976;37.140;2023-06-04T06:33:02;3.05;;;0.90;;
40609;SDS011;26316;55.976;37.140;2023-06-04T06:35:28;2.65;;;0.80;;
40609;SDS011;26316;55.976;37.140;2023-06-04T06:37:53;1.13;;;0.57;;
40609;SDS011;26316;55.976;37.140;2023-06-04T06:40:19;0.47;;;0.47;;
40609;SDS011;26316;55.976;37.140;2023-06-04T06:42:49;1.00;;;0.80;;
40609;SDS011;26316;55.976;37.140;2023-06-04T06:45:19;0.82;;;0.70;;
40609;SDS011;26316;55.976;37.140;2023-06-04T06:47:51;0.88;;;0.70;;
40609;SDS011;26316;55.976;37.140;2023-06-04T06:50:17;4.35;;;1.00;;
40609;SDS011;26316;55.976;37.140;2023-06-04T06:52:43;1.20;;;0.80;;
40609;SDS011;26316;55.976;37.140;2023-06-04T06:55:09;0.70;;;0.70;;
40609;SDS011;26316;55.976;37.140;2023-06-04T06:57:35;0.60;;;0.60;;
40609;SDS011;26316;55.976;37.140;2023-06-04T07:00:01;0.68;;;0.68;;
40609;SDS011;26316;55.976;37.140;2023-06-04T07:02:33;2.60;;;0.90;;
40609;SDS011;26316;55.976;37.140;2023-06-04T07:04:59;1.30;;;0.70;;
40609;SDS011;26316;55.976;37.140;2023-06-04T07:07:24;0.60;;;0.60;;
40609;SDS011;26316;55.976;37.140;2023-06-04T07:09:50;2.47;;;0.77;;
40609;SDS011;26316;55.976;37.140;2023-06-04T07:12:16;1.50;;;0.70;;
40609;SDS011;26316;55.976;37.140;2023-06-04T07:14:42;1.60;;;0.77;;
40609;SDS011;26316;55.976;37.140;2023-06-04T07:17:08;1.75;;;0.80;;
40609;SDS011;26316;55.976;37.140;2023-06-04T07:19:33;1.75;;;0.80;;
40609;SDS011;26316;55.976;37.140;2023-06-04T07:21:59;1.65;;;0.90;;
40609;SDS011;26316;55.976;37.140;2023-06-04T07:24:25;1.67;;;0.80;;
40609;SDS011;26316;55.976;37.140;2023-06-04T07:26:51;0.90;;;0.70;;
40609;SDS011;26316;55.976;37.140;2023-06-04T07:29:17;0.85;;;0.85;;
40609;SDS011;26316;55.976;37.140;2023-06-04T07:31:43;0.47;;;0.40;;
40609;SDS011;26316;55.976;37.140;2023-06-04T07:34:09;1.52;;;0.70;;
40609;SDS011;26316;55.976;37.140;2023-06-04T07:36:35;0.52;;;0.52;;
40609;SDS011;26316;55.976;37.140;2023-06-04T07:39:01;0.68;;;0.55;;
40609;SDS011;26316;55.976;37.140;2023-06-04T07:41:29;2.00;;;1.15;;
40609;SDS011;26316;55.976;37.140;2023-06-04T07:43:55;0.80;;;0.80;;
40609;SDS011;26316;55.976;37.140;2023-06-04T07:46:21;0.70;;;0.50;;
40609;SDS011;26316;55.976;37.140;2023-06-04T07:48:47;2.75;;;0.55;;
40609;SDS011;26316;55.976;37.140;2023-06-04T07:51:13;1.65;;;0.55;;
40609;SDS011;26316;55.976;37.140;2023-06-04T07:53:39;1.58;;;0.50;;
40609;SDS011;26316;55.976;37.140;2023-06-04T07:56:05;1.30;;;0.70;;
40609;SDS011;26316;55.976;37.140;2023-06-04T07:58:34;1.02;;;0.70;;
40609;SDS011;26316;55.976;37.140;2023-06-04T08:01:00;0.63;;;0.55;;
40609;SDS011;26316;55.976;37.140;2023-06-04T08:03:26;0.63;;;0.63;;
40609;SDS011;26316;55.976;37.140;2023-06-04T08:05:52;0.73;;;0.70;;
40609;SDS011;26316;55.976;37.140;2023-06-04T08:08:18;1.02;;;0.90;;
40609;SDS011;26316;55.976;37.140;2023-06-04T08:10:43;2.08;;;0.90;;
40609;SDS011;26316;55.976;37.140;2023-06-04T08:13:12;1.95;;;0.85;;
40609;SDS011;26316;55.976;37.140;2023-06-04T08:15:38;0.70;;;0.70;;
40609;SDS011;26316;55.976;37.140;2023-06-04T08:18:23;0.50;;;0.50;;
40609;SDS011;26316;55.976;37.140;2023-06-04T08:21:08;0.68;;;0.68;;
40609;SDS011;26316;55.976;37.140;2023-06-04T08:23:50;2.28;;;0.80;;
40609;SDS011;26316;55.976;37.140;2023-06-04T08:26:36;0.82;;;0.82;;
40609;SDS011;26316;55.976;37.140;2023-06-04T08:29:09;1.90;;;0.77;;
40609;SDS011;26316;55.976;37.140;2023-06-04T08:31:55;2.22;;;0.60;;
40609;SDS011;26316;55.976;37.140;2023-06-04T08:34:26;0.80;;;0.60;;
40609;SDS011;26316;55.976;37.140;2023-06-04T08:36:51;1.08;;;0.90;;
40609;SDS011;26316;55.976;37.140;2023-06-04T08:39:17;1.27;;;0.70;;
40609;SDS011;26316;55.976;37.140;2023-06-04T08:41:46;0.70;;;0.70;;
40609;SDS011;26316;55.976;37.140;2023-06-04T08:44:17;0.60;;;0.60;;
40609;SDS011;26316;55.976;37.140;2023-06-04T08:46:43;0.85;;;0.77;;
40609;SDS011;26316;55.976;37.140;2023-06-04T08:49:12;4.57;;;0.60;;
40609;SDS011;26316;55.976;37.140;2023-06-04T08:51:39;4.05;;;0.63;;
40609;SDS011;26316;55.976;37.140;2023-06-04T08:54:06;3.15;;;0.90;;
40609;SDS011;26316;55.976;37.140;2023-06-04T08:56:37;1.90;;;0.90;;
40609;SDS011;26316;55.976;37.140;2023-06-04T08:59:03;1.30;;;0.85;;
40609;SDS011;26316;55.976;37.140;2023-06-04T09:01:33;4.32;;;0.90;;
40609;SDS011;26316;55.976;37.140;2023-06-04T09:04:01;2.88;;;0.77;;
40609;SDS011;26316;55.976;37.140;2023-06-04T09:06:30;2.08;;;1.20;;
40609;SDS011;26316;55.976;37.140;2023-06-04T09:08:57;0.73;;;0.73;;
40609;SDS011;26316;55.976;37.140;2023-06-04T09:11:25;2.20;;;1.35;;
40609;SDS011;26316;55.976;37.140;2023-06-04T09:13:53;1.48;;;1.15;;
40609;SDS011;26316;55.976;37.140;2023-06-04T09:16:22;1.60;;;1.50;;
40609;SDS011;26316;55.976;37.140;2023-06-04T09:18:48;0.70;;;0.70;;
40609;SDS011;26316;55.976;37.140;2023-06-04T09:21:14;3.40;;;1.00;;
40609;SDS011;26316;55.976;37.140;2023-06-04T09:23:43;0.80;;;0.80;;
40609;SDS011;26316;55.976;37.140;2023-06-04T09:26:10;2.50;;;2.30;;
40609;SDS011;26316;55.976;37.140;2023-06-04T09:28:40;4.30;;;1.40;;
40609;SDS011;26316;55.976;37.140;2023-06-04T09:31:14;2.92;;;1.40;;
40609;SDS011;26316;55.976;37.140;2023-06-04T09:33:50;2.03;;;1.40;;
40609;SDS011;26316;55.976;37.140;2023-06-04T09:36:16;1.00;;;0.85;;
40609;SDS011;26316;55.976;37.140;2023-06-04T09:38:42;4.93;;;4.32;;
40609;SDS011;26316;55.976;37.140;2023-06-04T09:41:13;1.30;;;1.25;;
40609;SDS011;26316;55.976;37.140;2023-06-04T09:43:48;2.40;;;1.40;;
40609;SDS011;26316;55.976;37.140;2023-06-04T09:46:16;1.42;;;0.90;;
40609;SDS011;26316;55.976;37.140;2023-06-04T09:48:43;1.33;;;1.17;;
40609;SDS011;26316;55.976;37.140;2023-06-04T09:51:10;1.25;;;1.15;;
40609;SDS011;26316;55.976;37.140;2023-06-04T09:54:02;2.15;;;1.27;;
40609;SDS011;26316;55.976;37.140;2023-06-04T09:56:29;1.00;;;1.00;;
40609;SDS011;26316;55.976;37.140;2023-06-04T09:58:58;2.95;;;1.40;;
40609;SDS011;26316;55.976;37.140;2023-06-04T10:01:28;3.60;;;2.47;;
40609;SDS011;26316;55.976;37.140;2023-06-04T10:03:57;5.07;;;2.10;;
40609;SDS011;26316;55.976;37.140;2023-06-04T10:06:23;2.22;;;1.70;;
40609;SDS011;26316;55.976;37.140;2023-06-04T10:08:51;1.42;;;1.30;;
40609;SDS011;26316;55.976;37.140;2023-06-04T10:11:17;1.73;;;1.40;;
40609;SDS011;26316;55.976;37.140;2023-06-04T10:13:51;1.05;;;1.05;;
40609;SDS011;26316;55.976;37.140;2023-06-04T10:16:19;3.30;;;1.95;;
40609;SDS011;26316;55.976;37.140;2023-06-04T10:18:46;1.77;;;1.30;;
40609;SDS011;26316;55.976;37.140;2023-06-04T10:21:15;0.90;;;0.90;;
40609;SDS011;26316;55.976;37.140;2023-06-04T10:23:43;1.45;;;1.10;;
40609;SDS011;26316;55.976;37.140;2023-06-04T10:26:13;1.58;;;1.10;;
40609;SDS011;26316;55.976;37.140;2023-06-04T10:28:40;1.10;;;1.00;;
40609;SDS011;26316;55.976;37.140;2023-06-04T10:31:06;2.55;;;1.17;;
40609;SDS011;26316;55.976;37.140;2023-06-04T10:33:32;2.83;;;1.00;;
40609;SDS011;26316;55.976;37.140;2023-06-04T10:35:58;1.10;;;1.10;;
40609;SDS011;26316;55.976;37.140;2023-06-04T10:38:23;1.48;;;1.02;;
40609;SDS011;26316;55.976;37.140;2023-06-04T10:40:49;2.08;;;1.20;;
40609;SDS011;26316;55.976;37.140;2023-06-04T10:43:15;1.30;;;0.90;;
40609;SDS011;26316;55.976;37.140;2023-06-04T10:45:41;1.70;;;0.90;;
40609;SDS011;26316;55.976;37.140;2023-06-04T10:48:08;1.52;;;1.05;;
40609;SDS011;26316;55.976;37.140;2023-06-04T10:50:47;1.20;;;1.10;;
40609;SDS011;26316;55.976;37.140;2023-06-04T10:53:14;2.58;;;1.00;;
40609;SDS011;26316;55.976;37.140;2023-06-04T10:55:43;1.85;;;1.00;;
40609;SDS011;26316;55.976;37.140;2023-06-04T10:58:10;5.05;;;4.55;;
40609;SDS011;26316;55.976;37.140;2023-06-04T11:00:37;6.85;;;5.50;;
40609;SDS011;26316;55.976;37.140;2023-06-04T11:03:04;5.70;;;4.63;;
40609;SDS011;26316;55.976;37.140;2023-06-04T11:05:45;4.80;;;4.30;;
40609;SDS011;26316;55.976;37.140;2023-06-04T11:08:13;3.00;;;2.50;;
40609;SDS011;26316;55.976;37.140;2023-06-04T11:10:41;2.00;;;1.90;;
40609;SDS011;26316;55.976;37.140;2023-06-04T11:13:08;3.55;;;2.38;;
40609;SDS011;26316;55.976;37.140;2023-06-04T11:15:51;2.00;;;1.70;;
40609;SDS011;26316;55.976;37.140;2023-06-04T11:18:21;2.30;;;1.75;;
40609;SDS011;26316;55.976;37.140;2023-06-04T11:20:48;1.60;;;1.50;;
40609;SDS011;26316;55.976;37.140;2023-06-04T11:23:15;1.38;;;1.27;;
40609;SDS011;26316;55.976;37.140;2023-06-04T11:25:42;1.33;;;1.23;;
40609;SDS011;26316;55.976;37.140;2023-06-04T11:28:16;1.27;;;1.17;;
40609;SDS011;26316;55.976;37.140;2023-06-04T11:30:59;0.90;;;0.90;;
40609;SDS011;26316;55.976;37.140;2023-06-04T11:33:47;2.05;;;1.15;;
40609;SDS011;26316;55.976;37.140;2023-06-04T11:36:26;1.00;;;1.00;;
40609;SDS011;26316;55.976;37.140;2023-06-04T11:38:59;1.77;;;1.00;;
40609;SDS011;26316;55.976;37.140;2023-06-04T11:41:30;1.20;;;1.10;;
40609;SDS011;26316;55.976;37.140;2023-06-04T11:43:57;1.10;;;1.00;;
40609;SDS011;26316;55.976;37.140;2023-06-04T11:46:23;5.88;;;1.23;;
40609;SDS011;26316;55.976;37.140;2023-06-04T11:48:52;2.10;;;1.00;;
40609;SDS011;26316;55.976;37.140;2023-06-04T11:51:22;1.00;;;1.00;;
40609;SDS011;26316;55.976;37.140;2023-06-04T11:53:48;1.27;;;1.00;;
40609;SDS011;26316;55.976;37.140;2023-06-04T11:56:14;1.38;;;0.90;;
40609;SDS011;26316;55.976;37.140;2023-06-04T11:58:40;1.52;;;1.10;;
40609;SDS011;26316;55.976;37.140;2023-06-04T12:01:09;2.55;;;0.75;;
40609;SDS011;26316;55.976;37.140;2023-06-04T12:03:36;1.07;;;0.90;;
40609;SDS011;26316;55.976;37.140;2023-06-04T12:06:10;5.00;;;0.90;;
40609;SDS011;26316;55.976;37.140;2023-06-04T12:08:44;1.00;;;0.90;;
40609;SDS011;26316;55.976;37.140;2023-06-04T12:11:30;1.50;;;0.80;;
40609;SDS011;26316;55.976;37.140;2023-06-04T12:13:58;2.05;;;0.85;;
40609;SDS011;26316;55.976;37.140;2023-06-04T12:16:26;1.35;;;1.23;;
40609;SDS011;26316;55.976;37.140;2023-06-04T12:19:03;1.33;;;1.23;;
40609;SDS011;26316;55.976;37.140;2023-06-04T12:21:39;1.67;;;1.00;;
40609;SDS011;26316;55.976;37.140;2023-06-04T12:26:34;2.70;;;1.00;;
40609;SDS011;26316;55.976;37.140;2023-06-04T12:29:07;1.58;;;1.00;;
40609;SDS011;26316;55.976;37.140;2023-06-04T12:31:36;1.20;;;1.00;;
40609;SDS011;26316;55.976;37.140;2023-06-04T12:34:02;1.52;;;1.00;;
40609;SDS011;26316;55.976;37.140;2023-06-04T12:36:28;3.38;;;1.00;;
40609;SDS011;26316;55.976;37.140;2023-06-04T12:39:01;5.32;;;1.20;;
40609;SDS011;26316;55.976;37.140;2023-06-04T12:41:28;1.33;;;1.23;;
40609;SDS011;26316;55.976;37.140;2023-06-04T12:43:55;4.50;;;1.00;;
40609;SDS011;26316;55.976;37.140;2023-06-04T12:46:21;2.92;;;1.10;;
40609;SDS011;26316;55.976;37.140;2023-06-04T12:48:48;0.98;;;0.98;;
40609;SDS011;26316;55.976;37.140;2023-06-04T12:51:17;0.77;;;0.77;;
40609;SDS011;26316;55.976;37.140;2023-06-04T12:53:43;3.17;;;1.00;;
40609;SDS011;26316;55.976;37.140;2023-06-04T12:56:09;1.83;;;1.45;;
40609;SDS011;26316;55.976;37.140;2023-06-04T12:58:35;2.78;;;1.58;;
40609;SDS011;26316;55.976;37.140;2023-06-04T13:01:01;1.30;;;1.10;;
40609;SDS011;26316;55.976;37.140;2023-06-04T13:03:29;1.35;;;1.25;;
40609;SDS011;26316;55.976;37.140;2023-06-04T13:05:55;0.95;;;0.85;;
40609;SDS011;26316;55.976;37.140;2023-06-04T13:08:21;1.58;;;0.93;;
40609;SDS011;26316;55.976;37.140;2023-06-04T13:10:48;1.80;;;1.05;;
40609;SDS011;26316;55.976;37.140;2023-06-04T13:13:15;1.60;;;0.82;;
40609;SDS011;26316;55.976;37.140;2023-06-04T13:15:42;1.30;;;0.95;;
40609;SDS011;26316;55.976;37.140;2023-06-04T13:18:08;1.10;;;1.00;;
40609;SDS011;26316;55.976;37.140;2023-06-04T13:20:35;1.40;;;0.93;;
40609;SDS011;26316;55.976;37.140;2023-06-04T13:23:01;3.40;;;1.45;;
40609;SDS011;26316;55.976;37.140;2023-06-04T13:25:27;1.05;;;1.00;;
40609;SDS011;26316;55.976;37.140;2023-06-04T13:27:54;2.92;;;1.10;;
40609;SDS011;26316;55.976;37.140;2023-06-04T13:30:24;0.95;;;0.93;;
40609;SDS011;26316;55.976;37.140;2023-06-04T13:32:49;1.05;;;0.95;;
40609;SDS011;26316;55.976;37.140;2023-06-04T13:35:15;2.10;;;1.02;;
40609;SDS011;26316;55.976;37.140;2023-06-04T13:37:41;1.65;;;1.30;;
40609;SDS011;26316;55.976;37.140;2023-06-04T13:40:07;2.33;;;0.93;;
40609;SDS011;26316;55.976;37.140;2023-06-04T13:42:33;1.35;;;1.10;;
40609;SDS011;26316;55.976;37.140;2023-06-04T13:44:59;1.13;;;1.00;;
40609;SDS011;26316;55.976;37.140;2023-06-04T13:47:25;1.02;;;0.95;;
40609;SDS011;26316;55.976;37.140;2023-06-04T13:49:51;1.02;;;0.90;;
40609;SDS011;26316;55.976;37.140;2023-06-04T13:52:17;2.30;;;0.90;;
40609;SDS011;26316;55.976;37.140;2023-06-04T13:54:43;1.23;;;0.82;;
40609;SDS011;26316;55.976;37.140;2023-06-04T13:57:08;1.45;;;1.00;;
40609;SDS011;26316;55.976;37.140;2023-06-04T13:59:37;1.20;;;1.10;;
40609;SDS011;26316;55.976;37.140;2023-06-04T14:02:04;1.70;;;1.10;;
40609;SDS011;26316;55.976;37.140;2023-06-04T14:04:30;3.28;;;1.50;;
40609;SDS011;26316;55.976;37.140;2023-06-04T14:06:56;1.70;;;1.10;;
40609;SDS011;26316;55.976;37.140;2023-06-04T14:09:22;1.30;;;1.05;;
40609;SDS011;26316;55.976;37.140;2023-06-04T14:11:48;1.38;;;1.27;;
40609;SDS011;26316;55.976;37.140;2023-06-04T14:14:16;3.55;;;1.13;;
40609;SDS011;26316;55.976;37.140;2023-06-04T14:16:45;1.08;;;0.98;;
40609;SDS011;26316;55.976;37.140;2023-06-04T14:19:12;1.40;;;1.30;;
40609;SDS011;26316;55.976;37.140;2023-06-04T14:21:38;1.42;;;1.33;;
40609;SDS011;26316;55.976;37.140;2023-06-04T14:24:04;2.80;;;1.30;;
40609;SDS011;26316;55.976;37.140;2023-06-04T14:26:30;0.90;;;0.90;;
40609;SDS011;26316;55.976;37.140;2023-06-04T14:28:56;1.13;;;1.02;;
40609;SDS011;26316;55.976;37.140;2023-06-04T14:31:22;1.58;;;1.48;;
40609;SDS011;26316;55.976;37.140;2023-06-04T14:33:49;1.20;;;1.10;;
40609;SDS011;26316;55.976;37.140;2023-06-04T14:36:15;2.85;;;1.15;;
40609;SDS011;26316;55.976;37.140;2023-06-04T14:38:41;1.00;;;0.90;;
40609;SDS011;26316;55.976;37.140;2023-06-04T14:41:07;1.02;;;1.00;;
40609;SDS011;26316;55.976;37.140;2023-06-04T14:43:33;0.80;;;0.80;;
40609;SDS011;26316;55.976;37.140;2023-06-04T14:45:58;4.80;;;1.20;;